sensor_id;sensor_type;location;lat;lon;timestamp;P1;durP1;ratioP1;P2;durP2;ratioP2
6834;SDS011;3455;42.150;24.734;2023-05-07T00:01:17;5.40;;;4.83;;
6834;SDS011;3455;42.150;24.734;2023-05-07T00:03:44;5.50;;;5.10;;
6834;SDS011;3455;42.150;24.734;2023-05-07T00:06:11;5.30;;;4.77;;
6834;SDS011;3455;42.150;24.734;2023-05-07T00:08:37;5.80;;;5.30;;
6834;SDS011;3455;42.150;24.734;2023-05-07T00:11:04;5.43;;;5.10;;
6834;SDS011;3455;42.150;24.734;2023-05-07T00:13:31;5.03;;;4.73;;
6834;SDS011;3455;42.150;24.734;2023-05-07T00:16:00;5.03;;;4.63;;
6834;SDS011;3455;42.150;24.734;2023-05-07T00:18:28;5.30;;;4.73;;
6834;SDS011;3455;42.150;24.734;2023-05-07T00:20:55;5.83;;;5.43;;
6834;SDS011;3455;42.150;24.734;2023-05-07T00:23:22;5.30;;;5.00;;
6834;SDS011;3455;42.150;24.734;2023-05-07T00:25:49;6.23;;;5.73;;
6834;SDS011;3455;42.150;24.734;2023-05-07T00:28:16;6.37;;;5.80;;
6834;SDS011;3455;42.150;24.734;2023-05-07T00:30:42;5.80;;;5.40;;
6834;SDS011;3455;42.150;24.734;2023-05-07T00:33:09;5.77;;;5.30;;
6834;SDS011;3455;42.150;24.734;2023-05-07T00:35:37;4.63;;;4.40;;
6834;SDS011;3455;42.150;24.734;2023-05-07T00:38:04;6.87;;;5.20;;
6834;SDS011;3455;42.150;24.734;2023-05-07T00:40:31;8.40;;;5.53;;
6834;SDS011;3455;42.150;24.734;2023-05-07T00:42:57;5.63;;;5.13;;
6834;SDS011;3455;42.150;24.734;2023-05-07T00:45:25;6.80;;;5.13;;
6834;SDS011;3455;42.150;24.734;2023-05-07T00:47:53;4.90;;;4.60;;
6834;SDS011;3455;42.150;24.734;2023-05-07T00:50:21;5.53;;;5.13;;
6834;SDS011;3455;42.150;24.734;2023-05-07T00:52:49;9.07;;;5.73;;
6834;SDS011;3455;42.150;24.734;2023-05-07T00:55:16;6.00;;;5.50;;
6834;SDS011;3455;42.150;24.734;2023-05-07T00:57:43;8.97;;;5.50;;
6834;SDS011;3455;42.150;24.734;2023-05-07T01:00:11;5.67;;;5.37;;
6834;SDS011;3455;42.150;24.734;2023-05-07T01:02:38;6.37;;;5.97;;
6834;SDS011;3455;42.150;24.734;2023-05-07T01:05:06;8.33;;;6.17;;
6834;SDS011;3455;42.150;24.734;2023-05-07T01:07:35;8.73;;;6.20;;
6834;SDS011;3455;42.150;24.734;2023-05-07T01:10:05;6.20;;;5.80;;
6834;SDS011;3455;42.150;24.734;2023-05-07T01:12:33;6.27;;;5.77;;
6834;SDS011;3455;42.150;24.734;2023-05-07T01:15:01;6.87;;;6.17;;
6834;SDS011;3455;42.150;24.734;2023-05-07T01:17:28;7.43;;;6.73;;
6834;SDS011;3455;42.150;24.734;2023-05-07T01:19:55;6.90;;;6.30;;
6834;SDS011;3455;42.150;24.734;2023-05-07T01:22:27;8.03;;;6.07;;
6834;SDS011;3455;42.150;24.734;2023-05-07T01:24:57;7.00;;;6.37;;
6834;SDS011;3455;42.150;24.734;2023-05-07T01:27:24;7.17;;;6.37;;
6834;SDS011;3455;42.150;24.734;2023-05-07T01:29:51;6.87;;;6.27;;
6834;SDS011;3455;42.150;24.734;2023-05-07T01:32:18;6.07;;;5.67;;
6834;SDS011;3455;42.150;24.734;2023-05-07T01:34:50;6.50;;;6.00;;
6834;SDS011;3455;42.150;24.734;2023-05-07T01:37:19;6.63;;;5.97;;
6834;SDS011;3455;42.150;24.734;2023-05-07T01:39:48;6.47;;;6.07;;
6834;SDS011;3455;42.150;24.734;2023-05-07T01:42:15;5.67;;;5.27;;
6834;SDS011;3455;42.150;24.734;2023-05-07T01:44:41;6.00;;;5.53;;
6834;SDS011;3455;42.150;24.734;2023-05-07T01:47:08;9.03;;;5.80;;
6834;SDS011;3455;42.150;24.734;2023-05-07T01:49:35;6.37;;;5.97;;
6834;SDS011;3455;42.150;24.734;2023-05-07T01:52:02;5.77;;;5.37;;
6834;SDS011;3455;42.150;24.734;2023-05-07T01:54:29;6.47;;;6.07;;
6834;SDS011;3455;42.150;24.734;2023-05-07T01:56:58;5.83;;;5.33;;
6834;SDS011;3455;42.150;24.734;2023-05-07T01:59:25;6.50;;;6.10;;
6834;SDS011;3455;42.150;24.734;2023-05-07T02:01:51;6.37;;;5.87;;
6834;SDS011;3455;42.150;24.734;2023-05-07T02:04:18;6.93;;;6.17;;
6834;SDS011;3455;42.150;24.734;2023-05-07T02:06:45;6.50;;;6.00;;
6834;SDS011;3455;42.150;24.734;2023-05-07T02:09:13;6.60;;;6.23;;
6834;SDS011;3455;42.150;24.734;2023-05-07T02:11:41;7.00;;;6.27;;
6834;SDS011;3455;42.150;24.734;2023-05-07T02:14:09;9.73;;;6.90;;
6834;SDS011;3455;42.150;24.734;2023-05-07T02:16:36;7.87;;;6.23;;
6834;SDS011;3455;42.150;24.734;2023-05-07T02:19:02;6.90;;;6.27;;
6834;SDS011;3455;42.150;24.734;2023-05-07T02:21:30;9.63;;;7.13;;
6834;SDS011;3455;42.150;24.734;2023-05-07T02:23:57;7.53;;;6.83;;
6834;SDS011;3455;42.150;24.734;2023-05-07T02:26:23;7.50;;;6.90;;
6834;SDS011;3455;42.150;24.734;2023-05-07T02:28:51;7.63;;;7.03;;
6834;SDS011;3455;42.150;24.734;2023-05-07T02:31:20;8.13;;;7.10;;
6834;SDS011;3455;42.150;24.734;2023-05-07T02:33:47;8.83;;;7.87;;
6834;SDS011;3455;42.150;24.734;2023-05-07T02:36:13;8.37;;;7.77;;
6834;SDS011;3455;42.150;24.734;2023-05-07T02:38:40;8.53;;;7.80;;
6834;SDS011;3455;42.150;24.734;2023-05-07T02:41:07;8.90;;;8.30;;
6834;SDS011;3455;42.150;24.734;2023-05-07T02:43:33;8.33;;;7.63;;
6834;SDS011;3455;42.150;24.734;2023-05-07T02:46:01;10.23;;;9.33;;
6834;SDS011;3455;42.150;24.734;2023-05-07T02:48:30;9.37;;;8.47;;
6834;SDS011;3455;42.150;24.734;2023-05-07T02:50:56;9.37;;;8.57;;
6834;SDS011;3455;42.150;24.734;2023-05-07T02:53:23;10.00;;;9.17;;
6834;SDS011;3455;42.150;24.734;2023-05-07T02:55:51;10.03;;;9.13;;
6834;SDS011;3455;42.150;24.734;2023-05-07T02:58:19;10.57;;;9.67;;
6834;SDS011;3455;42.150;24.734;2023-05-07T03:00:45;10.30;;;9.50;;
6834;SDS011;3455;42.150;24.734;2023-05-07T03:03:12;10.37;;;9.67;;
6834;SDS011;3455;42.150;24.734;2023-05-07T03:05:40;11.93;;;10.90;;
6834;SDS011;3455;42.150;24.734;2023-05-07T03:08:07;12.97;;;11.27;;
6834;SDS011;3455;42.150;24.734;2023-05-07T03:10:35;11.43;;;10.67;;
6834;SDS011;3455;42.150;24.734;2023-05-07T03:13:02;12.37;;;11.07;;
6834;SDS011;3455;42.150;24.734;2023-05-07T03:15:28;11.17;;;10.30;;
6834;SDS011;3455;42.150;24.734;2023-05-07T03:17:55;12.40;;;11.30;;
6834;SDS011;3455;42.150;24.734;2023-05-07T03:20:22;12.80;;;11.60;;
6834;SDS011;3455;42.150;24.734;2023-05-07T03:22:50;13.27;;;11.83;;
6834;SDS011;3455;42.150;24.734;2023-05-07T03:25:17;12.27;;;11.13;;
6834;SDS011;3455;42.150;24.734;2023-05-07T03:27:44;12.30;;;11.13;;
6834;SDS011;3455;42.150;24.734;2023-05-07T03:30:11;11.90;;;11.00;;
6834;SDS011;3455;42.150;24.734;2023-05-07T03:32:38;12.17;;;11.30;;
6834;SDS011;3455;42.150;24.734;2023-05-07T03:35:05;11.87;;;10.90;;
6834;SDS011;3455;42.150;24.734;2023-05-07T03:37:32;12.27;;;11.20;;
6834;SDS011;3455;42.150;24.734;2023-05-07T03:40:00;13.93;;;12.53;;
6834;SDS011;3455;42.150;24.734;2023-05-07T03:42:28;12.80;;;11.63;;
6834;SDS011;3455;42.150;24.734;2023-05-07T03:44:55;13.20;;;12.23;;
6834;SDS011;3455;42.150;24.734;2023-05-07T03:47:22;13.17;;;11.87;;
6834;SDS011;3455;42.150;24.734;2023-05-07T03:49:48;13.20;;;12.00;;
6834;SDS011;3455;42.150;24.734;2023-05-07T03:52:15;14.57;;;12.20;;
6834;SDS011;3455;42.150;24.734;2023-05-07T03:54:47;13.13;;;12.03;;
6834;SDS011;3455;42.150;24.734;2023-05-07T03:57:16;12.17;;;11.07;;
6834;SDS011;3455;42.150;24.734;2023-05-07T03:59:42;13.07;;;11.87;;
6834;SDS011;3455;42.150;24.734;2023-05-07T04:02:09;15.50;;;11.83;;
6834;SDS011;3455;42.150;24.734;2023-05-07T04:04:36;12.73;;;11.67;;
6834;SDS011;3455;42.150;24.734;2023-05-07T04:07:03;15.03;;;13.60;;
6834;SDS011;3455;42.150;24.734;2023-05-07T04:09:29;14.60;;;13.30;;
6834;SDS011;3455;42.150;24.734;2023-05-07T04:11:56;12.80;;;11.80;;
6834;SDS011;3455;42.150;24.734;2023-05-07T04:14:24;13.40;;;12.30;;
6834;SDS011;3455;42.150;24.734;2023-05-07T04:16:51;13.53;;;12.33;;
6834;SDS011;3455;42.150;24.734;2023-05-07T04:19:18;11.57;;;10.77;;
6834;SDS011;3455;42.150;24.734;2023-05-07T04:21:45;11.57;;;10.80;;
6834;SDS011;3455;42.150;24.734;2023-05-07T04:24:11;11.13;;;10.30;;
6834;SDS011;3455;42.150;24.734;2023-05-07T04:26:39;12.47;;;11.37;;
6834;SDS011;3455;42.150;24.734;2023-05-07T04:29:05;11.57;;;10.67;;
6834;SDS011;3455;42.150;24.734;2023-05-07T04:31:33;11.40;;;10.53;;
6834;SDS011;3455;42.150;24.734;2023-05-07T04:34:00;10.93;;;10.13;;
6834;SDS011;3455;42.150;24.734;2023-05-07T04:36:27;10.83;;;9.93;;
6834;SDS011;3455;42.150;24.734;2023-05-07T04:38:54;33.70;;;22.53;;
6834;SDS011;3455;42.150;24.734;2023-05-07T04:41:21;10.57;;;9.60;;
6834;SDS011;3455;42.150;24.734;2023-05-07T04:43:47;11.20;;;10.30;;
6834;SDS011;3455;42.150;24.734;2023-05-07T04:46:14;10.00;;;9.20;;
6834;SDS011;3455;42.150;24.734;2023-05-07T04:48:42;10.20;;;9.33;;
6834;SDS011;3455;42.150;24.734;2023-05-07T04:51:09;9.93;;;9.23;;
6834;SDS011;3455;42.150;24.734;2023-05-07T04:53:36;10.77;;;9.97;;
6834;SDS011;3455;42.150;24.734;2023-05-07T04:56:03;11.70;;;10.37;;
6834;SDS011;3455;42.150;24.734;2023-05-07T04:58:30;11.13;;;8.80;;
6834;SDS011;3455;42.150;24.734;2023-05-07T05:00:57;11.67;;;9.93;;
6834;SDS011;3455;42.150;24.734;2023-05-07T05:03:24;10.30;;;9.27;;
6834;SDS011;3455;42.150;24.734;2023-05-07T05:05:52;9.40;;;8.70;;
6834;SDS011;3455;42.150;24.734;2023-05-07T05:08:19;9.63;;;8.90;;
6834;SDS011;3455;42.150;24.734;2023-05-07T05:10:45;9.67;;;8.90;;
6834;SDS011;3455;42.150;24.734;2023-05-07T05:13:13;9.57;;;8.77;;
6834;SDS011;3455;42.150;24.734;2023-05-07T05:15:40;8.90;;;8.10;;
6834;SDS011;3455;42.150;24.734;2023-05-07T05:18:07;8.60;;;7.90;;
6834;SDS011;3455;42.150;24.734;2023-05-07T05:20:34;8.23;;;7.70;;
6834;SDS011;3455;42.150;24.734;2023-05-07T05:23:02;8.43;;;7.77;;
6834;SDS011;3455;42.150;24.734;2023-05-07T05:25:29;9.63;;;7.83;;
6834;SDS011;3455;42.150;24.734;2023-05-07T05:27:55;7.77;;;7.17;;
6834;SDS011;3455;42.150;24.734;2023-05-07T05:30:22;8.13;;;7.00;;
6834;SDS011;3455;42.150;24.734;2023-05-07T05:32:49;7.57;;;6.77;;
6834;SDS011;3455;42.150;24.734;2023-05-07T05:35:16;7.10;;;6.60;;
6834;SDS011;3455;42.150;24.734;2023-05-07T05:37:43;9.10;;;7.43;;
6834;SDS011;3455;42.150;24.734;2023-05-07T05:40:12;8.07;;;7.40;;
6834;SDS011;3455;42.150;24.734;2023-05-07T05:42:38;7.53;;;6.93;;
6834;SDS011;3455;42.150;24.734;2023-05-07T05:45:06;7.73;;;6.47;;
6834;SDS011;3455;42.150;24.734;2023-05-07T05:47:33;7.65;;;7.05;;
6834;SDS011;3455;42.150;24.734;2023-05-07T05:50:00;7.03;;;6.53;;
6834;SDS011;3455;42.150;24.734;2023-05-07T05:52:27;7.15;;;6.45;;
6834;SDS011;3455;42.150;24.734;2023-05-07T05:54:53;6.78;;;6.10;;
6834;SDS011;3455;42.150;24.734;2023-05-07T05:57:22;6.65;;;5.60;;
6834;SDS011;3455;42.150;24.734;2023-05-07T05:59:48;5.75;;;5.25;;
6834;SDS011;3455;42.150;24.734;2023-05-07T06:02:15;6.53;;;6.13;;
6834;SDS011;3455;42.150;24.734;2023-05-07T06:04:42;8.23;;;5.28;;
6834;SDS011;3455;42.150;24.734;2023-05-07T06:07:09;5.78;;;5.38;;
6834;SDS011;3455;42.150;24.734;2023-05-07T06:09:35;8.32;;;6.18;;
6834;SDS011;3455;42.150;24.734;2023-05-07T06:12:02;5.97;;;5.50;;
6834;SDS011;3455;42.150;24.734;2023-05-07T06:14:30;5.32;;;5.03;;
6834;SDS011;3455;42.150;24.734;2023-05-07T06:16:57;5.70;;;5.40;;
6834;SDS011;3455;42.150;24.734;2023-05-07T06:19:24;5.68;;;5.10;;
6834;SDS011;3455;42.150;24.734;2023-05-07T06:21:51;6.10;;;5.50;;
6834;SDS011;3455;42.150;24.734;2023-05-07T06:24:18;4.95;;;4.65;;
6834;SDS011;3455;42.150;24.734;2023-05-07T06:26:45;5.32;;;4.88;;
6834;SDS011;3455;42.150;24.734;2023-05-07T06:29:12;5.72;;;4.78;;
6834;SDS011;3455;42.150;24.734;2023-05-07T06:31:40;6.15;;;5.65;;
6834;SDS011;3455;42.150;24.734;2023-05-07T06:34:08;4.80;;;4.43;;
6834;SDS011;3455;42.150;24.734;2023-05-07T06:36:39;5.65;;;5.10;;
6834;SDS011;3455;42.150;24.734;2023-05-07T06:39:05;6.38;;;5.07;;
6834;SDS011;3455;42.150;24.734;2023-05-07T06:41:32;5.45;;;5.05;;
6834;SDS011;3455;42.150;24.734;2023-05-07T06:43:59;9.02;;;4.88;;
6834;SDS011;3455;42.150;24.734;2023-05-07T06:46:26;6.07;;;4.80;;
6834;SDS011;3455;42.150;24.734;2023-05-07T06:48:55;5.20;;;4.75;;
6834;SDS011;3455;42.150;24.734;2023-05-07T06:51:22;5.43;;;4.80;;
6834;SDS011;3455;42.150;24.734;2023-05-07T06:53:49;4.75;;;4.35;;
6834;SDS011;3455;42.150;24.734;2023-05-07T06:56:16;5.22;;;4.82;;
6834;SDS011;3455;42.150;24.734;2023-05-07T06:58:42;5.53;;;5.10;;
6834;SDS011;3455;42.150;24.734;2023-05-07T07:01:09;5.13;;;4.82;;
6834;SDS011;3455;42.150;24.734;2023-05-07T07:03:36;5.20;;;4.40;;
6834;SDS011;3455;42.150;24.734;2023-05-07T07:06:04;5.32;;;4.93;;
6834;SDS011;3455;42.150;24.734;2023-05-07T07:08:31;5.38;;;5.00;;
6834;SDS011;3455;42.150;24.734;2023-05-07T07:10:59;5.30;;;4.68;;
6834;SDS011;3455;42.150;24.734;2023-05-07T07:13:27;5.30;;;4.85;;
6834;SDS011;3455;42.150;24.734;2023-05-07T07:15:54;7.05;;;5.35;;
6834;SDS011;3455;42.150;24.734;2023-05-07T07:18:21;7.45;;;5.30;;
6834;SDS011;3455;42.150;24.734;2023-05-07T07:20:47;6.40;;;5.88;;
6834;SDS011;3455;42.150;24.734;2023-05-07T07:23:16;6.35;;;5.55;;
6834;SDS011;3455;42.150;24.734;2023-05-07T07:25:42;6.45;;;5.90;;
6834;SDS011;3455;42.150;24.734;2023-05-07T07:28:09;8.75;;;5.60;;
6834;SDS011;3455;42.150;24.734;2023-05-07T07:30:36;5.47;;;5.10;;
6834;SDS011;3455;42.150;24.734;2023-05-07T07:33:03;6.93;;;5.18;;
6834;SDS011;3455;42.150;24.734;2023-05-07T07:35:30;6.68;;;5.10;;
6834;SDS011;3455;42.150;24.734;2023-05-07T07:37:57;5.78;;;5.38;;
6834;SDS011;3455;42.150;24.734;2023-05-07T07:40:25;6.13;;;5.63;;
6834;SDS011;3455;42.150;24.734;2023-05-07T07:42:52;5.65;;;5.28;;
6834;SDS011;3455;42.150;24.734;2023-05-07T07:45:20;5.65;;;4.85;;
6834;SDS011;3455;42.150;24.734;2023-05-07T07:47:46;6.15;;;5.65;;
6834;SDS011;3455;42.150;24.734;2023-05-07T07:50:13;6.28;;;5.70;;
6834;SDS011;3455;42.150;24.734;2023-05-07T07:52:40;6.18;;;5.78;;
6834;SDS011;3455;42.150;24.734;2023-05-07T07:55:07;5.45;;;4.93;;
6834;SDS011;3455;42.150;24.734;2023-05-07T07:57:36;6.35;;;5.90;;
6834;SDS011;3455;42.150;24.734;2023-05-07T08:00:03;5.35;;;5.00;;
6834;SDS011;3455;42.150;24.734;2023-05-07T08:02:32;5.63;;;4.85;;
6834;SDS011;3455;42.150;24.734;2023-05-07T08:04:59;5.82;;;5.43;;
6834;SDS011;3455;42.150;24.734;2023-05-07T08:07:26;6.45;;;5.60;;
6834;SDS011;3455;42.150;24.734;2023-05-07T08:09:53;7.30;;;5.15;;
6834;SDS011;3455;42.150;24.734;2023-05-07T08:12:19;7.07;;;5.15;;
6834;SDS011;3455;42.150;24.734;2023-05-07T08:14:48;6.82;;;4.95;;
6834;SDS011;3455;42.150;24.734;2023-05-07T08:17:14;7.68;;;4.82;;
6834;SDS011;3455;42.150;24.734;2023-05-07T08:19:41;5.70;;;5.25;;
6834;SDS011;3455;42.150;24.734;2023-05-07T08:22:08;5.32;;;4.93;;
6834;SDS011;3455;42.150;24.734;2023-05-07T08:24:35;3.92;;;3.63;;
6834;SDS011;3455;42.150;24.734;2023-05-07T08:27:02;7.07;;;3.97;;
6834;SDS011;3455;42.150;24.734;2023-05-07T08:29:29;4.97;;;4.57;;
6834;SDS011;3455;42.150;24.734;2023-05-07T08:31:57;5.43;;;5.13;;
6834;SDS011;3455;42.150;24.734;2023-05-07T08:34:24;4.25;;;4.05;;
6834;SDS011;3455;42.150;24.734;2023-05-07T08:36:51;4.07;;;3.88;;
6834;SDS011;3455;42.150;24.734;2023-05-07T08:39:18;4.20;;;3.90;;
6834;SDS011;3455;42.150;24.734;2023-05-07T08:41:44;2.90;;;2.70;;
6834;SDS011;3455;42.150;24.734;2023-05-07T08:44:12;4.30;;;2.97;;
6834;SDS011;3455;42.150;24.734;2023-05-07T08:46:41;3.28;;;3.08;;
6834;SDS011;3455;42.150;24.734;2023-05-07T08:49:10;3.22;;;2.80;;
6834;SDS011;3455;42.150;24.734;2023-05-07T08:51:36;4.22;;;3.28;;
6834;SDS011;3455;42.150;24.734;2023-05-07T08:54:04;3.47;;;3.25;;
6834;SDS011;3455;42.150;24.734;2023-05-07T08:56:32;3.38;;;3.17;;
6834;SDS011;3455;42.150;24.734;2023-05-07T08:58:59;3.65;;;3.40;;
6834;SDS011;3455;42.150;24.734;2023-05-07T09:01:25;3.80;;;2.88;;
6834;SDS011;3455;42.150;24.734;2023-05-07T09:03:52;3.45;;;3.25;;
6834;SDS011;3455;42.150;24.734;2023-05-07T09:06:21;5.10;;;3.08;;
6834;SDS011;3455;42.150;24.734;2023-05-07T09:08:51;3.17;;;2.90;;
6834;SDS011;3455;42.150;24.734;2023-05-07T09:11:20;2.63;;;2.53;;
6834;SDS011;3455;42.150;24.734;2023-05-07T09:13:47;2.38;;;2.17;;
6834;SDS011;3455;42.150;24.734;2023-05-07T09:16:15;2.75;;;2.40;;
6834;SDS011;3455;42.150;24.734;2023-05-07T09:18:41;2.35;;;2.15;;
6834;SDS011;3455;42.150;24.734;2023-05-07T09:21:10;3.95;;;2.22;;
6834;SDS011;3455;42.150;24.734;2023-05-07T09:23:38;4.32;;;2.50;;
6834;SDS011;3455;42.150;24.734;2023-05-07T09:26:06;2.85;;;2.40;;
6834;SDS011;3455;42.150;24.734;2023-05-07T09:28:37;2.50;;;2.40;;
6834;SDS011;3455;42.150;24.734;2023-05-07T09:31:05;2.67;;;2.47;;
6834;SDS011;3455;42.150;24.734;2023-05-07T09:33:32;2.75;;;2.15;;
6834;SDS011;3455;42.150;24.734;2023-05-07T09:36:01;2.30;;;2.20;;
6834;SDS011;3455;42.150;24.734;2023-05-07T09:38:29;3.92;;;2.55;;
6834;SDS011;3455;42.150;24.734;2023-05-07T09:41:07;3.17;;;2.15;;
6834;SDS011;3455;42.150;24.734;2023-05-07T09:43:34;7.25;;;2.63;;
6834;SDS011;3455;42.150;24.734;2023-05-07T09:46:02;2.25;;;2.15;;
6834;SDS011;3455;42.150;24.734;2023-05-07T09:48:32;2.90;;;2.70;;
6834;SDS011;3455;42.150;24.734;2023-05-07T09:51:03;2.22;;;2.13;;
6834;SDS011;3455;42.150;24.734;2023-05-07T09:53:37;2.92;;;2.72;;
6834;SDS011;3455;42.150;24.734;2023-05-07T09:56:07;4.05;;;2.92;;
6834;SDS011;3455;42.150;24.734;2023-05-07T09:58:36;2.80;;;2.60;;
6834;SDS011;3455;42.150;24.734;2023-05-07T10:01:03;2.78;;;2.58;;
6834;SDS011;3455;42.150;24.734;2023-05-07T10:03:31;3.00;;;2.70;;
6834;SDS011;3455;42.150;24.734;2023-05-07T10:06:01;2.25;;;2.13;;
6834;SDS011;3455;42.150;24.734;2023-05-07T10:08:30;6.82;;;2.60;;
6834;SDS011;3455;42.150;24.734;2023-05-07T10:10:58;2.50;;;2.40;;
6834;SDS011;3455;42.150;24.734;2023-05-07T10:13:27;3.63;;;2.63;;
6834;SDS011;3455;42.150;24.734;2023-05-07T10:15:55;8.30;;;2.40;;
6834;SDS011;3455;42.150;24.734;2023-05-07T10:18:21;4.53;;;2.80;;
6834;SDS011;3455;42.150;24.734;2023-05-07T10:20:54;3.08;;;2.72;;
6834;SDS011;3455;42.150;24.734;2023-05-07T10:23:28;3.00;;;2.60;;
6834;SDS011;3455;42.150;24.734;2023-05-07T10:25:57;2.90;;;2.67;;
6834;SDS011;3455;42.150;24.734;2023-05-07T10:28:27;2.65;;;2.47;;
6834;SDS011;3455;42.150;24.734;2023-05-07T10:31:01;3.70;;;2.60;;
6834;SDS011;3455;42.150;24.734;2023-05-07T10:33:36;4.70;;;2.92;;
6834;SDS011;3455;42.150;24.734;2023-05-07T10:36:05;5.03;;;2.50;;
6834;SDS011;3455;42.150;24.734;2023-05-07T10:38:33;2.63;;;2.42;;
6834;SDS011;3455;42.150;24.734;2023-05-07T10:41:00;2.60;;;2.42;;
6834;SDS011;3455;42.150;24.734;2023-05-07T10:43:39;3.22;;;2.72;;
6834;SDS011;3455;42.150;24.734;2023-05-07T10:46:11;3.47;;;2.90;;
6834;SDS011;3455;42.150;24.734;2023-05-07T10:51:37;2.92;;;2.50;;
6834;SDS011;3455;42.150;24.734;2023-05-07T10:54:21;2.35;;;2.22;;
6834;SDS011;3455;42.150;24.734;2023-05-07T10:56:48;2.88;;;2.67;;
6834;SDS011;3455;42.150;24.734;2023-05-07T10:59:36;3.53;;;2.72;;
6834;SDS011;3455;42.150;24.734;2023-05-07T11:02:09;3.13;;;2.25;;
6834;SDS011;3455;42.150;24.734;2023-05-07T11:04:39;2.40;;;2.20;;
6834;SDS011;3455;42.150;24.734;2023-05-07T11:07:14;3.08;;;2.92;;
6834;SDS011;3455;42.150;24.734;2023-05-07T11:10:05;2.10;;;2.00;;
6834;SDS011;3455;42.150;24.734;2023-05-07T11:12:52;2.30;;;2.05;;
6834;SDS011;3455;42.150;24.734;2023-05-07T11:15:37;3.30;;;2.30;;
6834;SDS011;3455;42.150;24.734;2023-05-07T11:18:11;4.05;;;2.60;;
6834;SDS011;3455;42.150;24.734;2023-05-07T11:20:48;2.35;;;2.25;;
6834;SDS011;3455;42.150;24.734;2023-05-07T11:26:24;2.53;;;2.30;;
6834;SDS011;3455;42.150;24.734;2023-05-07T11:28:52;2.55;;;1.70;;
6834;SDS011;3455;42.150;24.734;2023-05-07T11:31:21;2.42;;;2.15;;
6834;SDS011;3455;42.150;24.734;2023-05-07T11:33:51;3.47;;;2.20;;
6834;SDS011;3455;42.150;24.734;2023-05-07T11:36:18;2.75;;;2.10;;
6834;SDS011;3455;42.150;24.734;2023-05-07T11:38:46;2.50;;;2.10;;
6834;SDS011;3455;42.150;24.734;2023-05-07T11:41:13;2.72;;;2.60;;
6834;SDS011;3455;42.150;24.734;2023-05-07T11:43:53;2.55;;;2.03;;
6834;SDS011;3455;42.150;24.734;2023-05-07T11:46:22;4.93;;;2.47;;
6834;SDS011;3455;42.150;24.734;2023-05-07T11:48:49;5.40;;;1.90;;
6834;SDS011;3455;42.150;24.734;2023-05-07T11:51:18;3.15;;;2.30;;
6834;SDS011;3455;42.150;24.734;2023-05-07T11:53:46;4.03;;;2.28;;
6834;SDS011;3455;42.150;24.734;2023-05-07T11:56:14;2.15;;;2.05;;
6834;SDS011;3455;42.150;24.734;2023-05-07T11:58:42;2.20;;;2.10;;
6834;SDS011;3455;42.150;24.734;2023-05-07T12:01:11;2.33;;;2.22;;
6834;SDS011;3455;42.150;24.734;2023-05-07T12:03:41;4.10;;;2.47;;
6834;SDS011;3455;42.150;24.734;2023-05-07T12:06:09;2.50;;;2.15;;
6834;SDS011;3455;42.150;24.734;2023-05-07T12:08:37;2.20;;;2.10;;
6834;SDS011;3455;42.150;24.734;2023-05-07T12:11:07;3.83;;;2.38;;
6834;SDS011;3455;42.150;24.734;2023-05-07T12:13:34;3.30;;;2.55;;
6834;SDS011;3455;42.150;24.734;2023-05-07T12:16:01;2.33;;;2.10;;
6834;SDS011;3455;42.150;24.734;2023-05-07T12:18:29;2.30;;;2.20;;
6834;SDS011;3455;42.150;24.734;2023-05-07T12:20:58;3.70;;;2.63;;
6834;SDS011;3455;42.150;24.734;2023-05-07T12:23:25;2.63;;;2.35;;
6834;SDS011;3455;42.150;24.734;2023-05-07T12:25:52;2.75;;;2.65;;
6834;SDS011;3455;42.150;24.734;2023-05-07T12:28:19;2.58;;;2.38;;
6834;SDS011;3455;42.150;24.734;2023-05-07T12:30:46;3.33;;;2.58;;
6834;SDS011;3455;42.150;24.734;2023-05-07T12:33:16;2.28;;;2.08;;
6834;SDS011;3455;42.150;24.734;2023-05-07T12:35:44;2.88;;;2.65;;
6834;SDS011;3455;42.150;24.734;2023-05-07T12:38:13;2.67;;;2.58;;
6834;SDS011;3455;42.150;24.734;2023-05-07T12:40:42;2.55;;;2.45;;
6834;SDS011;3455;42.150;24.734;2023-05-07T12:43:14;2.55;;;2.45;;
6834;SDS011;3455;42.150;24.734;2023-05-07T12:45:43;3.83;;;2.10;;
6834;SDS011;3455;42.150;24.734;2023-05-07T12:48:10;4.25;;;2.00;;
6834;SDS011;3455;42.150;24.734;2023-05-07T12:50:37;2.47;;;2.20;;
6834;SDS011;3455;42.150;24.734;2023-05-07T12:53:04;2.10;;;2.00;;
6834;SDS011;3455;42.150;24.734;2023-05-07T12:55:41;4.05;;;2.78;;
6834;SDS011;3455;42.150;24.734;2023-05-07T12:58:16;3.17;;;2.38;;
6834;SDS011;3455;42.150;24.734;2023-05-07T13:00:44;4.43;;;2.35;;
6834;SDS011;3455;42.150;24.734;2023-05-07T13:03:17;2.13;;;2.00;;
6834;SDS011;3455;42.150;24.734;2023-05-07T13:05:47;7.90;;;2.40;;
6834;SDS011;3455;42.150;24.734;2023-05-07T13:08:22;2.60;;;2.38;;
6834;SDS011;3455;42.150;24.734;2023-05-07T13:10:51;3.20;;;2.00;;
6834;SDS011;3455;42.150;24.734;2023-05-07T13:13:19;2.60;;;2.50;;
6834;SDS011;3455;42.150;24.734;2023-05-07T13:15:46;3.05;;;2.85;;
6834;SDS011;3455;42.150;24.734;2023-05-07T13:18:13;3.75;;;2.67;;
6834;SDS011;3455;42.150;24.734;2023-05-07T13:20:39;2.70;;;2.58;;
6834;SDS011;3455;42.150;24.734;2023-05-07T13:23:06;2.30;;;2.20;;
6834;SDS011;3455;42.150;24.734;2023-05-07T13:25:33;2.40;;;2.30;;
6834;SDS011;3455;42.150;24.734;2023-05-07T13:28:01;2.17;;;2.08;;
6834;SDS011;3455;42.150;24.734;2023-05-07T13:30:29;2.58;;;2.25;;
6834;SDS011;3455;42.150;24.734;2023-05-07T13:32:56;2.70;;;2.28;;
6834;SDS011;3455;42.150;24.734;2023-05-07T13:35:23;4.75;;;2.08;;
6834;SDS011;3455;42.150;24.734;2023-05-07T13:37:50;4.90;;;2.13;;
6834;SDS011;3455;42.150;24.734;2023-05-07T13:40:17;2.30;;;2.20;;
6834;SDS011;3455;42.150;24.734;2023-05-07T13:42:44;1.98;;;1.88;;
6834;SDS011;3455;42.150;24.734;2023-05-07T13:45:12;2.22;;;2.13;;
6834;SDS011;3455;42.150;24.734;2023-05-07T13:47:40;2.10;;;2.00;;
6834;SDS011;3455;42.150;24.734;2023-05-07T13:50:07;2.10;;;1.90;;
6834;SDS011;3455;42.150;24.734;2023-05-07T13:52:36;2.15;;;1.73;;
6834;SDS011;3455;42.150;24.734;2023-05-07T13:55:05;2.08;;;1.98;;
6834;SDS011;3455;42.150;24.734;2023-05-07T13:57:33;1.63;;;1.63;;
6834;SDS011;3455;42.150;24.734;2023-05-07T13:59:59;2.22;;;2.13;;
6834;SDS011;3455;42.150;24.734;2023-05-07T14:02:28;1.90;;;1.80;;
6834;SDS011;3455;42.150;24.734;2023-05-07T14:04:54;1.98;;;1.80;;
6834;SDS011;3455;42.150;24.734;2023-05-07T14:07:21;1.80;;;1.70;;
6834;SDS011;3455;42.150;24.734;2023-05-07T14:09:48;2.10;;;2.00;;
6834;SDS011;3455;42.150;24.734;2023-05-07T14:12:15;8.07;;;2.25;;
6834;SDS011;3455;42.150;24.734;2023-05-07T14:14:41;2.08;;;1.88;;
6834;SDS011;3455;42.150;24.734;2023-05-07T14:17:10;1.92;;;1.85;;
6834;SDS011;3455;42.150;24.734;2023-05-07T14:19:39;5.88;;;2.22;;
6834;SDS011;3455;42.150;24.734;2023-05-07T14:22:06;2.25;;;2.10;;
6834;SDS011;3455;42.150;24.734;2023-05-07T14:24:34;2.47;;;1.98;;
6834;SDS011;3455;42.150;24.734;2023-05-07T14:27:01;2.45;;;2.35;;
6834;SDS011;3455;42.150;24.734;2023-05-07T14:29:28;2.63;;;2.53;;
6834;SDS011;3455;42.150;24.734;2023-05-07T14:31:55;1.98;;;1.88;;
6834;SDS011;3455;42.150;24.734;2023-05-07T14:34:23;1.92;;;1.70;;
6834;SDS011;3455;42.150;24.734;2023-05-07T14:36:51;2.42;;;2.10;;
6834;SDS011;3455;42.150;24.734;2023-05-07T14:39:19;3.33;;;2.25;;
6834;SDS011;3455;42.150;24.734;2023-05-07T14:41:47;2.00;;;1.90;;
6834;SDS011;3455;42.150;24.734;2023-05-07T14:44:14;3.65;;;2.83;;
6834;SDS011;3455;42.150;24.734;2023-05-07T14:46:42;1.67;;;1.63;;
6834;SDS011;3455;42.150;24.734;2023-05-07T14:49:10;6.22;;;3.95;;
6834;SDS011;3455;42.150;24.734;2023-05-07T14:51:42;1.83;;;1.73;;
6834;SDS011;3455;42.150;24.734;2023-05-07T14:54:13;2.50;;;1.65;;
6834;SDS011;3455;42.150;24.734;2023-05-07T14:56:40;5.65;;;2.47;;
6834;SDS011;3455;42.150;24.734;2023-05-07T14:59:08;1.95;;;1.85;;
6834;SDS011;3455;42.150;24.734;2023-05-07T15:01:35;2.80;;;2.15;;
6834;SDS011;3455;42.150;24.734;2023-05-07T15:04:02;2.90;;;1.92;;
6834;SDS011;3455;42.150;24.734;2023-05-07T15:06:30;2.15;;;2.00;;
6834;SDS011;3455;42.150;24.734;2023-05-07T15:08:57;2.15;;;2.00;;